sensor_id;sensor_type;location;lat;lon;timestamp;pressure;altitude;pressure_sealevel;temperature;humidity
68807;BME280;55800;54.272;18.558;2023-01-29T00:01:10;101501.81;;;0.72;70.11
68807;BME280;55800;54.272;18.558;2023-01-29T00:03:40;101509.69;;;0.72;70.17
68807;BME280;55800;54.272;18.558;2023-01-29T00:06:09;101515.81;;;0.71;70.15
68807;BME280;55800;54.272;18.558;2023-01-29T00:08:39;101522.84;;;0.72;70.26
68807;BME280;55800;54.272;18.558;2023-01-29T00:11:10;101535.06;;;0.67;70.60
68807;BME280;55800;54.272;18.558;2023-01-29T00:13:39;101540.31;;;0.67;70.62
68807;BME280;55800;54.272;18.558;2023-01-29T00:16:09;101535.19;;;0.76;70.30
68807;BME280;55800;54.272;18.558;2023-01-29T00:18:38;101536.09;;;0.79;70.45
68807;BME280;55800;54.272;18.558;2023-01-29T00:21:09;101544.81;;;0.75;70.53
68807;BME280;55800;54.272;18.558;2023-01-29T00:23:38;101543.03;;;0.73;70.76
68807;BME280;55800;54.272;18.558;2023-01-29T00:26:09;101544.81;;;0.75;70.96
68807;BME280;55800;54.272;18.558;2023-01-29T00:28:42;101547.53;;;0.83;70.81
68807;BME280;55800;54.272;18.558;2023-01-29T00:31:14;101548.44;;;0.85;70.88
68807;BME280;55800;54.272;18.558;2023-01-29T00:33:44;101541.47;;;0.89;70.83
68807;BME280;55800;54.272;18.558;2023-01-29T00:36:15;101539.69;;;0.89;70.82
68807;BME280;55800;54.272;18.558;2023-01-29T00:38:44;101547.69;;;0.95;70.93
68807;BME280;55800;54.272;18.558;2023-01-29T00:41:26;101542.44;;;0.98;71.06
68807;BME280;55800;54.272;18.558;2023-01-29T00:44:13;101543.41;;;1.03;71.11
68807;BME280;55800;54.272;18.558;2023-01-29T00:47:01;101536.41;;;1.04;71.24
68807;BME280;55800;54.272;18.558;2023-01-29T00:49:30;101526.72;;;1.03;71.70
68807;BME280;55800;54.272;18.558;2023-01-29T00:51:59;101538.16;;;1.06;71.47
68807;BME280;55800;54.272;18.558;2023-01-29T00:54:46;101550.47;;;1.09;71.44
68807;BME280;55800;54.272;18.558;2023-01-29T00:57:16;101552.25;;;1.11;71.37
68807;BME280;55800;54.272;18.558;2023-01-29T00:59:46;101557.59;;;1.14;71.42
68807;BME280;55800;54.272;18.558;2023-01-29T01:02:16;101563.72;;;1.15;71.50
68807;BME280;55800;54.272;18.558;2023-01-29T01:05:05;101563.75;;;1.16;71.90
68807;BME280;55800;54.272;18.558;2023-01-29T01:07:35;101557.59;;;1.19;71.72
68807;BME280;55800;54.272;18.558;2023-01-29T01:10:04;101555.91;;;1.21;71.94
68807;BME280;55800;54.272;18.558;2023-01-29T01:12:52;101548.00;;;1.22;71.94
68807;BME280;55800;54.272;18.558;2023-01-29T01:15:23;101554.13;;;1.20;72.35
68807;BME280;55800;54.272;18.558;2023-01-29T01:17:55;101568.19;;;1.22;72.46
68807;BME280;55800;54.272;18.558;2023-01-29T01:20:26;101563.75;;;1.19;72.88
68807;BME280;55800;54.272;18.558;2023-01-29T01:22:56;101554.97;;;1.17;72.98
68807;BME280;55800;54.272;18.558;2023-01-29T01:25:26;101548.84;;;1.18;73.20
68807;BME280;55800;54.272;18.558;2023-01-29T01:27:57;101560.34;;;1.25;73.22
68807;BME280;55800;54.272;18.558;2023-01-29T01:30:29;101545.38;;;1.25;73.21
68807;BME280;55800;54.272;18.558;2023-01-29T01:33:01;101540.06;;;1.19;73.51
68807;BME280;55800;54.272;18.558;2023-01-29T01:35:30;101551.47;;;1.20;73.71
68807;BME280;55800;54.272;18.558;2023-01-29T01:37:59;101534.78;;;1.19;73.41
68807;BME280;55800;54.272;18.558;2023-01-29T01:40:29;101540.09;;;1.21;73.68
68807;BME280;55800;54.272;18.558;2023-01-29T01:43:00;101533.00;;;1.15;73.70
68807;BME280;55800;54.272;18.558;2023-01-29T01:45:31;101531.31;;;1.22;73.63
68807;BME280;55800;54.272;18.558;2023-01-29T01:48:04;101512.91;;;1.26;73.64
68807;BME280;55800;54.272;18.558;2023-01-29T01:50:39;101515.56;;;1.25;73.58
68807;BME280;55800;54.272;18.558;2023-01-29T01:53:13;101512.09;;;1.30;73.33
68807;BME280;55800;54.272;18.558;2023-01-29T01:55:49;101512.06;;;1.29;73.49
68807;BME280;55800;54.272;18.558;2023-01-29T01:58:25;101505.88;;;1.25;73.69
68807;BME280;55800;54.272;18.558;2023-01-29T02:00:55;101501.47;;;1.23;73.90
68807;BME280;55800;54.272;18.558;2023-01-29T02:03:26;101502.38;;;1.26;73.79
68807;BME280;55800;54.272;18.558;2023-01-29T02:06:13;101506.81;;;1.29;73.90
68807;BME280;55800;54.272;18.558;2023-01-29T02:09:04;101481.31;;;1.26;73.58
68807;BME280;55800;54.272;18.558;2023-01-29T02:11:51;101472.47;;;1.21;74.15
68807;BME280;55800;54.272;18.558;2023-01-29T02:14:22;101472.44;;;1.17;74.02
68807;BME280;55800;54.272;18.558;2023-01-29T02:16:52;101478.63;;;1.23;73.96
68807;BME280;55800;54.272;18.558;2023-01-29T02:19:29;101474.25;;;1.25;73.79
68807;BME280;55800;54.272;18.558;2023-01-29T02:22:23;101461.09;;;1.25;73.59
68807;BME280;55800;54.272;18.558;2023-01-29T02:28:22;101447.97;;;1.30;73.89
68807;BME280;55800;54.272;18.558;2023-01-29T02:31:00;101445.28;;;1.24;73.93
68807;BME280;55800;54.272;18.558;2023-01-29T02:33:41;101453.19;;;1.25;74.42
68807;BME280;55800;54.272;18.558;2023-01-29T02:36:18;101443.53;;;1.24;74.41
68807;BME280;55800;54.272;18.558;2023-01-29T02:38:57;101432.13;;;1.25;74.05
68807;BME280;55800;54.272;18.558;2023-01-29T02:41:31;101433.81;;;1.17;74.74
68807;BME280;55800;54.272;18.558;2023-01-29T02:44:09;101427.69;;;1.18;74.73
68807;BME280;55800;54.272;18.558;2023-01-29T02:46:44;101435.63;;;1.23;74.70
68807;BME280;55800;54.272;18.558;2023-01-29T02:49:23;101448.81;;;1.26;74.89
68807;BME280;55800;54.272;18.558;2023-01-29T02:51:59;101439.16;;;1.26;74.64
68807;BME280;55800;54.272;18.558;2023-01-29T02:54:33;101429.47;;;1.24;74.85
68807;BME280;55800;54.272;18.558;2023-01-29T02:57:14;101436.53;;;1.25;74.92
68807;BME280;55800;54.272;18.558;2023-01-29T02:59:49;101432.16;;;1.30;74.72
68807;BME280;55800;54.272;18.558;2023-01-29T03:02:27;101433.91;;;1.26;74.87
68807;BME280;55800;54.272;18.558;2023-01-29T03:05:01;101433.09;;;1.35;74.93
68807;BME280;55800;54.272;18.558;2023-01-29T03:07:34;101433.06;;;1.32;74.51
68807;BME280;55800;54.272;18.558;2023-01-29T03:10:22;101438.38;;;1.33;74.63
68807;BME280;55800;54.272;18.558;2023-01-29T03:12:56;101441.84;;;1.34;75.29
68807;BME280;55800;54.272;18.558;2023-01-29T03:15:31;101448.09;;;1.43;74.60
68807;BME280;55800;54.272;18.558;2023-01-29T03:18:26;101440.19;;;1.45;74.50
68807;BME280;55800;54.272;18.558;2023-01-29T03:21:03;101441.97;;;1.47;74.51
68807;BME280;55800;54.272;18.558;2023-01-29T03:23:56;101440.19;;;1.45;74.83
68807;BME280;55800;54.272;18.558;2023-01-29T03:26:47;101444.63;;;1.49;74.73
68807;BME280;55800;54.272;18.558;2023-01-29T03:29:38;101427.03;;;1.46;74.38
68807;BME280;55800;54.272;18.558;2023-01-29T03:33:06;101413.84;;;1.45;74.64
68807;BME280;55800;54.272;18.558;2023-01-29T03:35:44;101405.06;;;1.44;74.81
68807;BME280;55800;54.272;18.558;2023-01-29T03:38:15;101391.97;;;1.50;74.60
68807;BME280;55800;54.272;18.558;2023-01-29T03:40:48;101390.22;;;1.52;74.89
68807;BME280;55800;54.272;18.558;2023-01-29T03:43:28;101390.19;;;1.49;74.84
68807;BME280;55800;54.272;18.558;2023-01-29T03:46:05;101396.34;;;1.50;74.88
68807;BME280;55800;54.272;18.558;2023-01-29T03:48:42;101399.00;;;1.54;75.23
68807;BME280;55800;54.272;18.558;2023-01-29T03:51:19;101384.03;;;1.49;75.06
68807;BME280;55800;54.272;18.558;2023-01-29T03:53:55;101390.19;;;1.51;75.12
68807;BME280;55800;54.272;18.558;2023-01-29T03:56:43;101394.59;;;1.53;75.43
68807;BME280;55800;54.272;18.558;2023-01-29T03:59:20;101388.41;;;1.48;75.10
68807;BME280;55800;54.272;18.558;2023-01-29T04:02:20;101370.81;;;1.41;75.18
68807;BME280;55800;54.272;18.558;2023-01-29T04:05:03;101362.00;;;1.41;75.38
68807;BME280;55800;54.272;18.558;2023-01-29T04:07:43;101356.75;;;1.42;75.06
68807;BME280;55800;54.272;18.558;2023-01-29T04:10:17;101362.03;;;1.47;75.40
68807;BME280;55800;54.272;18.558;2023-01-29T04:12:50;101362.03;;;1.45;75.00
68807;BME280;55800;54.272;18.558;2023-01-29T04:15:22;101364.69;;;1.44;75.24
68807;BME280;55800;54.272;18.558;2023-01-29T04:17:55;101360.25;;;1.41;75.52
68807;BME280;55800;54.272;18.558;2023-01-29T04:20:39;101358.53;;;1.43;75.11
68807;BME280;55800;54.272;18.558;2023-01-29T04:23:20;101363.78;;;1.43;75.74
68807;BME280;55800;54.272;18.558;2023-01-29T04:25:57;101371.72;;;1.51;75.43
68807;BME280;55800;54.272;18.558;2023-01-29T04:28:49;101365.56;;;1.47;75.30
68807;BME280;55800;54.272;18.558;2023-01-29T04:31:23;101355.88;;;1.45;75.41
68807;BME280;55800;54.272;18.558;2023-01-29T04:34:04;101343.56;;;1.42;75.04
68807;BME280;55800;54.272;18.558;2023-01-29T04:36:49;101337.44;;;1.43;75.31
68807;BME280;55800;54.272;18.558;2023-01-29T04:39:29;101349.75;;;1.47;74.96
68807;BME280;55800;54.272;18.558;2023-01-29T04:42:09;101337.50;;;1.52;75.00
68807;BME280;55800;54.272;18.558;2023-01-29T04:44:45;101336.63;;;1.50;74.97
68807;BME280;55800;54.272;18.558;2023-01-29T04:47:23;101336.59;;;1.47;75.05
68807;BME280;55800;54.272;18.558;2023-01-29T04:50:02;101337.44;;;1.46;75.29
68807;BME280;55800;54.272;18.558;2023-01-29T04:52:45;101326.00;;;1.44;75.01
68807;BME280;55800;54.272;18.558;2023-01-29T04:55:22;101322.53;;;1.45;75.20
68807;BME280;55800;54.272;18.558;2023-01-29T04:58:00;101319.03;;;1.49;75.13
68807;BME280;55800;54.272;18.558;2023-01-29T05:00:34;101318.16;;;1.47;74.99
68807;BME280;55800;54.272;18.558;2023-01-29T05:03:05;101318.19;;;1.53;74.92
68807;BME280;55800;54.272;18.558;2023-01-29T05:05:37;101307.63;;;1.50;75.03
68807;BME280;55800;54.272;18.558;2023-01-29T05:08:12;101302.38;;;1.55;75.20
68807;BME280;55800;54.272;18.558;2023-01-29T05:10:42;101287.44;;;1.55;75.20
68807;BME280;55800;54.272;18.558;2023-01-29T05:13:14;101283.06;;;1.57;75.00
68807;BME280;55800;54.272;18.558;2023-01-29T05:15:49;101283.06;;;1.54;75.25
68807;BME280;55800;54.272;18.558;2023-01-29T05:18:21;101298.91;;;1.64;74.90
68807;BME280;55800;54.272;18.558;2023-01-29T05:20:50;101291.00;;;1.61;75.35
68807;BME280;55800;54.272;18.558;2023-01-29T05:23:21;101281.34;;;1.66;75.75
68807;BME280;55800;54.272;18.558;2023-01-29T05:25:51;101283.97;;;1.64;75.21
68807;BME280;55800;54.272;18.558;2023-01-29T05:28:20;101289.25;;;1.64;75.49
68807;BME280;55800;54.272;18.558;2023-01-29T05:30:51;101283.13;;;1.67;75.55
68807;BME280;55800;54.272;18.558;2023-01-29T05:33:22;101293.63;;;1.64;75.32
68807;BME280;55800;54.272;18.558;2023-01-29T05:35:52;101287.50;;;1.63;74.96
68807;BME280;55800;54.272;18.558;2023-01-29T05:38:23;101283.97;;;1.61;75.80
68807;BME280;55800;54.272;18.558;2023-01-29T05:40:53;101274.31;;;1.68;75.55
68807;BME280;55800;54.272;18.558;2023-01-29T05:43:23;101280.50;;;1.70;75.58
68807;BME280;55800;54.272;18.558;2023-01-29T05:45:53;101269.94;;;1.67;75.32
68807;BME280;55800;54.272;18.558;2023-01-29T05:48:23;101276.94;;;1.68;75.47
68807;BME280;55800;54.272;18.558;2023-01-29T05:50:58;101284.91;;;1.74;75.56
68807;BME280;55800;54.272;18.558;2023-01-29T05:53:30;101277.88;;;1.79;75.46
68807;BME280;55800;54.272;18.558;2023-01-29T05:56:01;101273.50;;;1.78;75.56
68807;BME280;55800;54.272;18.558;2023-01-29T05:58:31;101273.50;;;1.78;75.46
68807;BME280;55800;54.272;18.558;2023-01-29T06:01:08;101279.63;;;1.77;75.33
68807;BME280;55800;54.272;18.558;2023-01-29T06:03:38;101274.38;;;1.77;75.44
68807;BME280;55800;54.272;18.558;2023-01-29T06:06:07;101272.63;;;1.76;75.66
68807;BME280;55800;54.272;18.558;2023-01-29T06:08:38;101267.38;;;1.86;75.37
68807;BME280;55800;54.272;18.558;2023-01-29T06:11:10;101277.91;;;1.85;75.48
68807;BME280;55800;54.272;18.558;2023-01-29T06:13:39;101267.38;;;1.82;75.05
68807;BME280;55800;54.272;18.558;2023-01-29T06:16:10;101275.28;;;1.82;75.38
68807;BME280;55800;54.272;18.558;2023-01-29T06:18:40;101258.56;;;1.83;75.19
68807;BME280;55800;54.272;18.558;2023-01-29T06:21:12;101265.59;;;1.85;75.36
68807;BME280;55800;54.272;18.558;2023-01-29T06:23:42;101266.50;;;1.87;75.05
68807;BME280;55800;54.272;18.558;2023-01-29T06:26:14;101262.97;;;1.87;75.14
68807;BME280;55800;54.272;18.558;2023-01-29T06:28:43;101271.78;;;1.92;75.97
68807;BME280;55800;54.272;18.558;2023-01-29T06:31:13;101266.50;;;1.93;75.33
68807;BME280;55800;54.272;18.558;2023-01-29T06:34:02;101284.09;;;1.94;75.83
68807;BME280;55800;54.272;18.558;2023-01-29T06:36:31;101273.56;;;1.94;75.83
68807;BME280;55800;54.272;18.558;2023-01-29T06:39:02;101269.16;;;1.98;75.81
68807;BME280;55800;54.272;18.558;2023-01-29T06:41:32;101268.28;;;1.97;75.64
68807;BME280;55800;54.272;18.558;2023-01-29T06:44:01;101276.22;;;1.99;75.43
68807;BME280;55800;54.272;18.558;2023-01-29T06:46:30;101260.38;;;2.02;76.06
68807;BME280;55800;54.272;18.558;2023-01-29T06:48:59;101258.66;;;2.13;76.25
68807;BME280;55800;54.272;18.558;2023-01-29T06:51:29;101261.34;;;2.20;76.08
68807;BME280;55800;54.272;18.558;2023-01-29T06:53:58;101256.06;;;2.22;77.03
68807;BME280;55800;54.272;18.558;2023-01-29T06:56:29;101265.75;;;2.32;76.53
68807;BME280;55800;54.272;18.558;2023-01-29T06:58:58;101261.34;;;2.35;76.41
68807;BME280;55800;54.272;18.558;2023-01-29T07:01:28;101258.72;;;2.34;76.33
68807;BME280;55800;54.272;18.558;2023-01-29T07:04:03;101250.78;;;2.34;76.87
68807;BME280;55800;54.272;18.558;2023-01-29T07:06:32;101242.00;;;2.30;76.69
68807;BME280;55800;54.272;18.558;2023-01-29T07:09:02;101238.47;;;2.31;77.07
68807;BME280;55800;54.272;18.558;2023-01-29T07:11:33;101248.16;;;2.37;77.00
68807;BME280;55800;54.272;18.558;2023-01-29T07:14:04;101249.91;;;2.38;76.74
68807;BME280;55800;54.272;18.558;2023-01-29T07:16:34;101241.09;;;2.37;76.51
68807;BME280;55800;54.272;18.558;2023-01-29T07:19:03;101238.50;;;2.44;77.27
68807;BME280;55800;54.272;18.558;2023-01-29T07:21:32;101236.75;;;2.52;76.62
68807;BME280;55800;54.272;18.558;2023-01-29T07:24:01;101234.09;;;2.47;76.79
68807;BME280;55800;54.272;18.558;2023-01-29T07:26:32;101235.88;;;2.48;77.51
68807;BME280;55800;54.272;18.558;2023-01-29T07:29:03;101234.09;;;2.55;77.24
68807;BME280;55800;54.272;18.558;2023-01-29T07:31:33;101228.84;;;2.56;76.95
68807;BME280;55800;54.272;18.558;2023-01-29T07:34:02;101230.56;;;2.68;76.74
68807;BME280;55800;54.272;18.558;2023-01-29T07:36:32;101228.81;;;2.68;76.81
68807;BME280;55800;54.272;18.558;2023-01-29T07:39:01;101224.41;;;2.76;76.81
68807;BME280;55800;54.272;18.558;2023-01-29T07:41:31;101214.75;;;2.72;77.08
68807;BME280;55800;54.272;18.558;2023-01-29T07:44:01;101210.34;;;2.79;76.82
68807;BME280;55800;54.272;18.558;2023-01-29T07:46:30;101200.66;;;2.79;76.56
68807;BME280;55800;54.272;18.558;2023-01-29T07:48:59;101200.63;;;2.82;76.73
68807;BME280;55800;54.272;18.558;2023-01-29T07:51:28;101200.63;;;2.82;76.62
68807;BME280;55800;54.272;18.558;2023-01-29T07:53:57;101206.81;;;2.78;76.82
68807;BME280;55800;54.272;18.558;2023-01-29T07:56:27;101209.44;;;2.83;77.06
68807;BME280;55800;54.272;18.558;2023-01-29T07:58:58;101202.41;;;2.88;76.89
68807;BME280;55800;54.272;18.558;2023-01-29T08:01:27;101202.38;;;2.98;76.61
68807;BME280;55800;54.272;18.558;2023-01-29T08:03:57;101205.88;;;3.03;76.80
68807;BME280;55800;54.272;18.558;2023-01-29T08:06:26;101200.59;;;3.06;76.61
68807;BME280;55800;54.272;18.558;2023-01-29T08:08:55;101201.47;;;3.10;77.04
68807;BME280;55800;54.272;18.558;2023-01-29T08:11:26;101196.19;;;3.13;76.87
68807;BME280;55800;54.272;18.558;2023-01-29T08:13:57;101190.03;;;3.12;76.96
68807;BME280;55800;54.272;18.558;2023-01-29T08:16:26;101180.34;;;3.17;76.88
68807;BME280;55800;54.272;18.558;2023-01-29T08:18:55;101181.22;;;3.20;76.81
68807;BME280;55800;54.272;18.558;2023-01-29T08:21:25;101183.84;;;3.24;76.96
68807;BME280;55800;54.272;18.558;2023-01-29T08:23:54;101186.47;;;3.26;76.99
68807;BME280;55800;54.272;18.558;2023-01-29T08:26:23;101179.41;;;3.28;77.00
68807;BME280;55800;54.272;18.558;2023-01-29T08:28:54;101183.78;;;3.36;76.88
68807;BME280;55800;54.272;18.558;2023-01-29T08:31:24;101192.59;;;3.37;76.84
68807;BME280;55800;54.272;18.558;2023-01-29T08:33:53;101193.47;;;3.39;76.93
68807;BME280;55800;54.272;18.558;2023-01-29T08:36:23;101196.09;;;3.43;76.74
68807;BME280;55800;54.272;18.558;2023-01-29T08:38:52;101181.09;;;3.44;76.82
68807;BME280;55800;54.272;18.558;2023-01-29T08:41:21;101179.31;;;3.46;76.74
68807;BME280;55800;54.272;18.558;2023-01-29T08:43:50;101175.81;;;3.50;76.59
68807;BME280;55800;54.272;18.558;2023-01-29T08:46:20;101178.44;;;3.51;76.81
68807;BME280;55800;54.272;18.558;2023-01-29T08:48:50;101186.34;;;3.56;76.72
68807;BME280;55800;54.272;18.558;2023-01-29T08:51:20;101184.59;;;3.58;76.85
68807;BME280;55800;54.272;18.558;2023-01-29T08:53:49;101188.94;;;3.63;76.82
68807;BME280;55800;54.272;18.558;2023-01-29T08:56:19;101181.00;;;3.63;76.94
68807;BME280;55800;54.272;18.558;2023-01-29T08:58:48;101181.00;;;3.68;76.97
68807;BME280;55800;54.272;18.558;2023-01-29T09:01:18;101181.84;;;3.71;76.91
68807;BME280;55800;54.272;18.558;2023-01-29T09:03:47;101173.94;;;3.70;77.06
68807;BME280;55800;54.272;18.558;2023-01-29T09:06:18;101175.69;;;3.72;76.95
68807;BME280;55800;54.272;18.558;2023-01-29T09:08:48;101166.88;;;3.75;76.96
68807;BME280;55800;54.272;18.558;2023-01-29T09:11:17;101169.50;;;3.75;76.81
68807;BME280;55800;54.272;18.558;2023-01-29T09:13:46;101167.75;;;3.72;77.06
68807;BME280;55800;54.272;18.558;2023-01-29T09:16:16;101158.03;;;3.76;76.85
68807;BME280;55800;54.272;18.558;2023-01-29T09:18:45;101158.91;;;3.81;76.76
68807;BME280;55800;54.272;18.558;2023-01-29T09:21:14;101163.28;;;3.82;76.65
68807;BME280;55800;54.272;18.558;2023-01-29T09:23:45;101158.00;;;3.85;76.54
68807;BME280;55800;54.272;18.558;2023-01-29T09:26:14;101157.97;;;3.89;76.63
68807;BME280;55800;54.272;18.558;2023-01-29T09:28:43;101163.22;;;3.91;76.52
68807;BME280;55800;54.272;18.558;2023-01-29T09:31:13;101166.72;;;3.97;76.26
68807;BME280;55800;54.272;18.558;2023-01-29T09:33:42;101171.09;;;4.03;76.21
68807;BME280;55800;54.272;18.558;2023-01-29T09:36:11;101176.41;;;4.00;76.34
68807;BME280;55800;54.272;18.558;2023-01-29T09:38:41;101175.47;;;4.06;76.30
68807;BME280;55800;54.272;18.558;2023-01-29T09:41:22;101169.31;;;4.07;76.19
68807;BME280;55800;54.272;18.558;2023-01-29T09:43:58;101165.78;;;4.06;76.07
68807;BME280;55800;54.272;18.558;2023-01-29T09:46:34;101162.25;;;4.09;75.97
68807;BME280;55800;54.272;18.558;2023-01-29T09:49:10;101165.75;;;4.08;76.08
68807;BME280;55800;54.272;18.558;2023-01-29T09:51:45;101160.47;;;4.09;76.11
68807;BME280;55800;54.272;18.558;2023-01-29T09:54:20;101151.63;;;4.10;76.05
68807;BME280;55800;54.272;18.558;2023-01-29T09:56:55;101150.75;;;4.13;75.78
68807;BME280;55800;54.272;18.558;2023-01-29T09:59:26;101148.09;;;4.13;75.89
68807;BME280;55800;54.272;18.558;2023-01-29T10:02:08;101149.00;;;4.13;75.77
68807;BME280;55800;54.272;18.558;2023-01-29T10:04:51;101147.22;;;4.15;75.47
68807;BME280;55800;54.272;18.558;2023-01-29T10:10:36;101134.00;;;4.12;75.53
68807;BME280;55800;54.272;18.558;2023-01-29T10:13:18;101134.91;;;4.11;75.62
68807;BME280;55800;54.272;18.558;2023-01-29T10:16:06;101131.38;;;4.09;75.71
68807;BME280;55800;54.272;18.558;2023-01-29T10:18:58;101131.38;;;4.09;75.79
68807;BME280;55800;54.272;18.558;2023-01-29T10:24:35;101139.31;;;4.11;75.61
68807;BME280;55800;54.272;18.558;2023-01-29T10:27:12;101119.88;;;4.12;75.65
68807;BME280;55800;54.272;18.558;2023-01-29T10:29:47;101120.81;;;4.06;75.55
68807;BME280;55800;54.272;18.558;2023-01-29T10:32:20;101119.91;;;4.09;75.47
68807;BME280;55800;54.272;18.558;2023-01-29T10:34:53;101109.34;;;4.07;75.62
68807;BME280;55800;54.272;18.558;2023-01-29T10:37:29;101103.16;;;4.05;75.57
68807;BME280;55800;54.272;18.558;2023-01-29T10:40:21;101104.94;;;4.03;75.72
68807;BME280;55800;54.272;18.558;2023-01-29T10:42:57;101089.94;;;4.07;75.58
68807;BME280;55800;54.272;18.558;2023-01-29T10:45:36;101103.16;;;4.08;75.57
68807;BME280;55800;54.272;18.558;2023-01-29T10:48:29;101100.47;;;4.10;75.52
68807;BME280;55800;54.272;18.558;2023-01-29T10:51:09;101096.03;;;4.16;75.60
68807;BME280;55800;54.272;18.558;2023-01-29T10:53:47;101087.19;;;4.16;75.62
68807;BME280;55800;54.272;18.558;2023-01-29T10:56:39;101092.50;;;4.14;75.71
68807;BME280;55800;54.272;18.558;2023-01-29T10:59:44;101080.16;;;4.16;75.84
68807;BME280;55800;54.272;18.558;2023-01-29T11:02:19;101069.56;;;4.16;75.77
68807;BME280;55800;54.272;18.558;2023-01-29T11:04:49;101070.47;;;4.15;75.83
68807;BME280;55800;54.272;18.558;2023-01-29T11:07:20;101066.00;;;4.19;75.85
68807;BME280;55800;54.272;18.558;2023-01-29T11:09:55;101052.75;;;4.20;75.97
68807;BME280;55800;54.272;18.558;2023-01-29T11:12:28;101054.47;;;4.24;76.14
68807;BME280;55800;54.272;18.558;2023-01-29T11:15:04;101057.94;;;4.34;75.85
68807;BME280;55800;54.272;18.558;2023-01-29T11:17:38;101048.22;;;4.36;75.51
68807;BME280;55800;54.272;18.558;2023-01-29T11:20:26;101044.66;;;4.38;75.71
68807;BME280;55800;54.272;18.558;2023-01-29T11:22:56;101034.00;;;4.44;75.65
68807;BME280;55800;54.272;18.558;2023-01-29T11:25:26;101033.16;;;4.41;75.59
68807;BME280;55800;54.272;18.558;2023-01-29T11:27:58;101021.66;;;4.43;75.82
68807;BME280;55800;54.272;18.558;2023-01-29T11:30:30;101026.06;;;4.44;75.73
68807;BME280;55800;54.272;18.558;2023-01-29T11:33:09;101012.78;;;4.49;75.69
68807;BME280;55800;54.272;18.558;2023-01-29T11:35:40;101010.09;;;4.50;75.52
68807;BME280;55800;54.272;18.558;2023-01-29T11:38:18;101026.00;;;4.50;75.41
68807;BME280;55800;54.272;18.558;2023-01-29T11:40:51;101005.72;;;4.49;75.21
68807;BME280;55800;54.272;18.558;2023-01-29T11:43:31;101003.97;;;4.45;75.28
68807;BME280;55800;54.272;18.558;2023-01-29T11:46:02;101006.56;;;4.50;75.17
68807;BME280;55800;54.272;18.558;2023-01-29T11:48:40;101005.75;;;4.46;75.09
68807;BME280;55800;54.272;18.558;2023-01-29T11:51:11;101003.97;;;4.48;75.18
68807;BME280;55800;54.272;18.558;2023-01-29T11:53:43;101009.25;;;4.48;75.31
68807;BME280;55800;54.272;18.558;2023-01-29T11:56:21;100999.56;;;4.47;75.36
68807;BME280;55800;54.272;18.558;2023-01-29T11:58:53;101005.72;;;4.48;75.41
68807;BME280;55800;54.272;18.558;2023-01-29T12:01:31;101001.31;;;4.48;75.41
68807;BME280;55800;54.272;18.558;2023-01-29T12:04:13;101016.25;;;4.52;75.48
68807;BME280;55800;54.272;18.558;2023-01-29T12:06:44;101020.63;;;4.58;75.35
68807;BME280;55800;54.272;18.558;2023-01-29T12:09:19;101011.84;;;4.56;75.33
68807;BME280;55800;54.272;18.558;2023-01-29T12:11:50;101007.38;;;4.59;75.22
68807;BME280;55800;54.272;18.558;2023-01-29T12:14:27;101017.09;;;4.57;75.17
68807;BME280;55800;54.272;18.558;2023-01-29T12:17:00;101011.84;;;4.56;75.08
68807;BME280;55800;54.272;18.558;2023-01-29T12:19:37;101006.53;;;4.54;75.14
68807;BME280;55800;54.272;18.558;2023-01-29T12:22:14;100996.88;;;4.50;75.18
68807;BME280;55800;54.272;18.558;2023-01-29T12:24:51;100974.81;;;4.50;75.28
68807;BME280;55800;54.272;18.558;2023-01-29T12:27:26;100974.78;;;4.53;75.10
68807;BME280;55800;54.272;18.558;2023-01-29T12:30:03;100965.94;;;4.55;75.17
68807;BME280;55800;54.272;18.558;2023-01-29T12:32:42;100959.88;;;4.47;75.16
68807;BME280;55800;54.272;18.558;2023-01-29T12:35:20;100959.03;;;4.42;75.50
68807;BME280;55800;54.272;18.558;2023-01-29T12:37:55;100945.78;;;4.42;75.34
68807;BME280;55800;54.272;18.558;2023-01-29T12:40:31;100942.28;;;4.40;75.38
68807;BME280;55800;54.272;18.558;2023-01-29T12:43:06;100935.19;;;4.42;75.37
68807;BME280;55800;54.272;18.558;2023-01-29T12:45:41;100937.00;;;4.40;75.55
68807;BME280;55800;54.272;18.558;2023-01-29T12:48:14;100930.78;;;4.41;75.26
68807;BME280;55800;54.272;18.558;2023-01-29T12:50:50;100933.44;;;4.41;75.60
68807;BME280;55800;54.272;18.558;2023-01-29T12:53:25;100928.13;;;4.44;75.35
68807;BME280;55800;54.272;18.558;2023-01-29T12:55:59;100917.50;;;4.47;75.17
68807;BME280;55800;54.272;18.558;2023-01-29T12:58:34;100916.69;;;4.41;75.45
68807;BME280;55800;54.272;18.558;2023-01-29T13:01:08;100927.25;;;4.42;75.49
68807;BME280;55800;54.272;18.558;2023-01-29T13:03:47;100928.19;;;4.38;75.47
68807;BME280;55800;54.272;18.558;2023-01-29T13:06:22;100906.13;;;4.38;75.78
68807;BME280;55800;54.272;18.558;2023-01-29T13:08:55;100898.16;;;4.39;75.68
68807;BME280;55800;54.272;18.558;2023-01-29T13:11:32;100902.63;;;4.36;75.76
68807;BME280;55800;54.272;18.558;2023-01-29T13:14:08;100896.47;;;4.35;75.62
68807;BME280;55800;54.272;18.558;2023-01-29T13:16:43;100900.00;;;4.34;75.71
68807;BME280;55800;54.272;18.558;2023-01-29T13:19:20;100893.88;;;4.29;75.55
68807;BME280;55800;54.272;18.558;2023-01-29T13:21:55;100899.22;;;4.28;75.62
68807;BME280;55800;54.272;18.558;2023-01-29T13:24:32;100902.78;;;4.22;75.46
68807;BME280;55800;54.272;18.558;2023-01-29T13:27:04;100901.13;;;4.15;75.75
68807;BME280;55800;54.272;18.558;2023-01-29T13:29:33;100902.88;;;4.15;75.93
68807;BME280;55800;54.272;18.558;2023-01-29T13:32:04;100895.03;;;4.09;75.84
68807;BME280;55800;54.272;18.558;2023-01-29T13:34:34;100887.06;;;4.10;75.78
68807;BME280;55800;54.272;18.558;2023-01-29T13:37:11;100890.63;;;4.09;76.00